Time;durP1;ratioP1;P1;durP2;ratioP2;P2;SDS_P1;SDS_P2;PMS_P1;PMS_P2;Temp;Humidity;BMP_temperature;BMP_pressure;BME280_temperature;BME280_humidity;BME280_pressure;Samples;Min_cycle;Max_cycle;Signal;HPM_P1;HPM_P2
2020/12/29 00:00:58;;;;;;;1.93;1.70;;;4.40;88.60;;;;;;4961896;29;20219;-88
2020/12/29 00:03:24;;;;;;;2.37;1.70;;;4.40;87.90;;;;;;4964402;29;20184;-88
2020/12/29 00:05:50;;;;;;;2.13;1.50;;;4.40;88.30;;;;;;4963026;28;20244;-88
2020/12/29 00:08:16;;;;;;;2.00;1.50;;;4.30;88.20;;;;;;4969746;28;20233;-89
2020/12/29 00:10:42;;;;;;;1.40;1.30;;;4.30;88.50;;;;;;4981404;28;20179;-87
2020/12/29 00:13:08;;;;;;;2.97;1.40;;;4.50;86.80;;;;;;4970149;28;20191;-89
2020/12/29 00:15:41;;;;;;;1.40;1.30;;;4.60;85.00;;;;;;4960145;28;20219;-89
2020/12/29 00:18:07;;;;;;;0.90;0.90;;;4.50;86.70;;;;;;4961314;28;20257;-88
2020/12/29 00:20:33;;;;;;;1.30;1.20;;;4.60;85.10;;;;;;4961064;28;20211;-89
2020/12/29 00:22:59;;;;;;;1.53;1.43;;;4.60;85.20;;;;;;4960771;28;20218;-88
2020/12/29 00:25:25;;;;;;;1.43;0.90;;;4.70;84.60;;;;;;4959900;28;20183;-87
2020/12/29 00:27:51;;;;;;;1.57;1.00;;;4.60;85.40;;;;;;4959623;28;20209;-88
2020/12/29 00:30:16;;;;;;;1.87;1.30;;;4.60;85.60;;;;;;4960789;28;20198;-89
2020/12/29 00:32:42;;;;;;;2.30;0.90;;;4.60;86.20;;;;;;4959274;28;20196;-89
2020/12/29 00:35:08;;;;;;;1.10;1.00;;;4.50;86.60;;;;;;4961150;28;20241;-89
2020/12/29 00:37:33;;;;;;;1.00;1.00;;;4.60;86.10;;;;;;4967786;28;20187;-89
2020/12/29 00:39:59;;;;;;;1.30;1.10;;;4.60;86.10;;;;;;4970293;28;20195;-89
2020/12/29 00:42:25;;;;;;;1.27;1.03;;;4.50;86.60;;;;;;5061908;28;20176;-89
2020/12/29 00:44:50;;;;;;;0.97;0.93;;;4.70;85.50;;;;;;4962189;28;20184;-88
2020/12/29 00:47:18;;;;;;;0.67;0.67;;;4.70;85.70;;;;;;4968240;28;20190;-88
2020/12/29 00:49:43;;;;;;;1.40;0.60;;;4.80;85.10;;;;;;4963166;28;20210;-89
2020/12/29 00:52:09;;;;;;;2.03;1.10;;;4.70;85.30;;;;;;4980500;28;20191;-89
2020/12/29 00:54:34;;;;;;;0.97;0.97;;;4.60;86.50;;;;;;4980689;28;20269;-89
2020/12/29 00:57:00;;;;;;;1.83;1.00;;;4.70;86.30;;;;;;4979336;28;20215;-89
2020/12/29 00:59:26;;;;;;;1.00;1.00;;;4.70;87.60;;;;;;4978496;28;20218;-89
2020/12/29 01:01:55;;;;;;;0.93;0.90;;;4.70;87.00;;;;;;4975355;28;20208;-89
2020/12/29 01:04:21;;;;;;;1.43;0.93;;;4.70;87.30;;;;;;4960003;28;20204;-88
2020/12/29 01:06:48;;;;;;;1.03;0.87;;;4.60;87.70;;;;;;4959341;29;20270;-88
2020/12/29 01:09:14;;;;;;;0.80;0.80;;;4.70;87.30;;;;;;4958651;28;20222;-88
2020/12/29 01:11:39;;;;;;;2.33;1.00;;;4.70;87.10;;;;;;4960443;28;20180;-88
2020/12/29 01:14:05;;;;;;;1.20;1.03;;;4.80;87.30;;;;;;4990604;28;20194;-88
2020/12/29 01:16:31;;;;;;;3.70;1.00;;;4.60;88.00;;;;;;4972364;28;20221;-88
2020/12/29 01:18:56;;;;;;;2.23;1.13;;;4.60;87.90;;;;;;4962124;28;20274;-88
2020/12/29 01:21:22;;;;;;;1.60;1.37;;;4.60;88.10;;;;;;4979249;28;20284;-88
2020/12/29 01:23:48;;;;;;;1.60;0.97;;;4.60;88.50;;;;;;4979613;28;20242;-88
2020/12/29 01:26:24;;;;;;;0.90;0.90;;;4.60;88.50;;;;;;4977933;28;20183;-88
2020/12/29 01:28:50;;;;;;;0.97;0.77;;;4.60;88.30;;;;;;4979568;28;20198;-89
2020/12/29 01:31:22;;;;;;;0.87;0.80;;;4.50;88.90;;;;;;4978909;28;20206;-89
2020/12/29 01:33:48;;;;;;;0.70;0.70;;;4.50;89.10;;;;;;4980676;28;20213;-87
2020/12/29 01:36:14;;;;;;;1.17;0.80;;;4.50;88.70;;;;;;4980498;28;20650;-89
2020/12/29 01:38:41;;;;;;;1.80;1.00;;;4.50;89.10;;;;;;4979112;28;20215;-89
2020/12/29 01:41:06;;;;;;;0.67;0.67;;;4.40;89.50;;;;;;4979170;28;20215;-89
2020/12/29 01:43:32;;;;;;;1.30;0.70;;;4.30;90.30;;;;;;4979112;28;20187;-88
2020/12/29 01:45:58;;;;;;;0.67;0.67;;;4.30;90.40;;;;;;4975079;28;21717;-89
2020/12/29 01:48:26;;;;;;;0.97;0.80;;;4.30;90.00;;;;;;4960696;28;20199;-89
2020/12/29 01:50:52;;;;;;;0.93;0.93;;;4.20;90.20;;;;;;4960771;28;20179;-89
2020/12/29 01:53:17;;;;;;;0.57;0.57;;;4.20;90.40;;;;;;4961012;29;20191;-89
2020/12/29 01:55:43;;;;;;;1.10;1.00;;;4.30;89.90;;;;;;4960941;28;20196;-88
2020/12/29 01:58:09;;;;;;;1.13;0.90;;;4.20;89.70;;;;;;4961082;29;20216;-89
2020/12/29 02:00:35;;;;;;;0.80;0.80;;;4.20;90.00;;;;;;4991882;28;20212;-88
2020/12/29 02:03:01;;;;;;;0.90;0.90;;;4.20;89.70;;;;;;4960700;28;20732;-89
2020/12/29 02:05:28;;;;;;;1.43;0.83;;;4.20;89.80;;;;;;4960664;28;20233;-88
2020/12/29 02:07:54;;;;;;;1.10;0.90;;;4.20;89.80;;;;;;4992051;28;20235;-88
2020/12/29 02:10:20;;;;;;;0.90;0.90;;;4.20;90.20;;;;;;4960626;29;20184;-88
2020/12/29 02:12:45;;;;;;;1.33;1.00;;;4.10;90.50;;;;;;4961059;28;20188;-89
2020/12/29 02:15:11;;;;;;;0.80;0.80;;;4.20;90.30;;;;;;4960713;28;20654;-89
2020/12/29 02:17:37;;;;;;;0.97;0.90;;;4.20;90.40;;;;;;4960940;28;20191;-89
2020/12/29 02:20:07;;;;;;;1.10;0.90;;;4.10;90.70;;;;;;4957943;28;20563;-89
2020/12/29 02:22:33;;;;;;;1.97;1.00;;;4.10;90.50;;;;;;4960316;28;20207;-89
2020/12/29 02:25:04;;;;;;;1.10;1.00;;;4.20;89.90;;;;;;4960961;28;20176;-88
2020/12/29 02:27:33;;;;;;;1.27;0.90;;;4.10;90.40;;;;;;4960936;29;20172;-88
2020/12/29 02:29:59;;;;;;;0.70;0.70;;;4.10;90.50;;;;;;4960467;28;20233;-88
2020/12/29 02:32:26;;;;;;;0.93;0.90;;;4.20;90.00;;;;;;4960291;28;20172;-88
2020/12/29 02:34:52;;;;;;;1.43;0.90;;;4.30;89.70;;;;;;4960069;28;20637;-88
2020/12/29 02:37:19;;;;;;;1.03;0.90;;;4.40;89.80;;;;;;4960064;28;20184;-88
2020/12/29 02:39:50;;;;;;;0.80;0.80;;;4.40;89.10;;;;;;4975170;28;20211;-88
2020/12/29 02:42:15;;;;;;;1.07;0.83;;;4.50;88.80;;;;;;4943623;28;20224;-88
2020/12/29 02:44:41;;;;;;;0.87;0.80;;;4.50;88.90;;;;;;4972093;28;20189;-88
2020/12/29 02:47:07;;;;;;;1.30;1.20;;;4.60;88.70;;;;;;4941379;29;20195;-88
2020/12/29 02:49:33;;;;;;;2.50;1.13;;;4.60;89.00;;;;;;4948970;28;20287;-88
2020/12/29 02:52:03;;;;;;;1.97;1.40;;;4.60;89.50;;;;;;4945816;28;20188;-88
2020/12/29 02:54:28;;;;;;;2.77;0.97;;;4.70;88.20;;;;;;4941038;28;20184;-88
2020/12/29 02:56:55;;;;;;;0.93;0.87;;;4.80;88.50;;;;;;4940992;29;20548;-87
2020/12/29 02:59:24;;;;;;;1.17;0.73;;;4.70;89.20;;;;;;4941159;28;20272;-89
2020/12/29 03:01:50;;;;;;;0.90;0.90;;;4.70;89.10;;;;;;4943378;29;20275;-89
2020/12/29 03:04:20;;;;;;;0.87;0.87;;;4.70;89.20;;;;;;4956253;28;20614;-88
2020/12/29 03:06:46;;;;;;;1.20;1.10;;;4.90;88.40;;;;;;4975048;28;20184;-88
2020/12/29 03:09:13;;;;;;;1.50;1.50;;;4.90;88.20;;;;;;4959736;28;20215;-88
2020/12/29 03:11:38;;;;;;;1.17;0.70;;;4.90;88.00;;;;;;4959935;28;20216;-89
2020/12/29 03:14:07;;;;;;;0.80;0.80;;;4.90;87.00;;;;;;4959754;29;20184;-89
2020/12/29 03:16:33;;;;;;;0.60;0.60;;;4.80;87.80;;;;;;4960104;28;20258;-88
2020/12/29 03:19:01;;;;;;;0.60;0.60;;;4.80;87.30;;;;;;4991265;28;20207;-89
2020/12/29 03:21:26;;;;;;;0.67;0.67;;;4.80;87.80;;;;;;4991296;28;20254;-88
2020/12/29 03:23:52;;;;;;;0.40;0.40;;;4.70;88.60;;;;;;4993298;28;20206;-88
2020/12/29 03:26:18;;;;;;;0.63;0.63;;;4.80;88.60;;;;;;4977970;28;20314;-88
2020/12/29 03:28:44;;;;;;;0.37;0.37;;;4.80;88.80;;;;;;4949306;28;20248;-89
2020/12/29 03:31:10;;;;;;;1.80;0.70;;;4.80;88.70;;;;;;4974628;28;20192;-88
2020/12/29 03:33:36;;;;;;;0.40;0.40;;;4.80;88.10;;;;;;4974374;28;20195;-88
2020/12/29 03:36:02;;;;;;;1.17;0.70;;;4.70;89.40;;;;;;4944425;28;20188;-89
2020/12/29 03:38:28;;;;;;;0.90;0.90;;;4.80;89.20;;;;;;4944071;28;20216;-88
2020/12/29 03:40:54;;;;;;;3.03;0.80;;;4.80;88.60;;;;;;4943973;28;20306;-88
2020/12/29 03:43:21;;;;;;;0.60;0.60;;;4.80;88.30;;;;;;4944160;29;20180;-87
2020/12/29 03:45:48;;;;;;;1.20;0.90;;;4.80;89.80;;;;;;4943922;28;20272;-88
2020/12/29 03:48:16;;;;;;;1.40;1.00;;;4.80;89.00;;;;;;4943707;28;20193;-88
2020/12/29 03:50:43;;;;;;;2.27;0.90;;;4.90;87.80;;;;;;4974822;28;20191;-88
2020/12/29 03:53:09;;;;;;;2.07;1.00;;;4.80;89.40;;;;;;4943862;28;20211;-88
2020/12/29 03:55:35;;;;;;;2.03;1.03;;;4.80;88.20;;;;;;4944006;29;20192;-89
2020/12/29 03:58:02;;;;;;;1.07;1.07;;;4.80;88.00;;;;;;4944114;28;20204;-88
2020/12/29 04:00:28;;;;;;;1.13;0.80;;;4.90;88.00;;;;;;4944175;28;20204;-89
2020/12/29 04:02:54;;;;;;;4.17;1.30;;;4.90;87.90;;;;;;4943918;28;20208;-88
2020/12/29 04:05:20;;;;;;;1.30;0.87;;;4.80;89.60;;;;;;4943901;28;20207;-88
2020/12/29 04:07:46;;;;;;;1.07;1.00;;;4.90;89.90;;;;;;4943476;28;20228;-89
2020/12/29 04:10:12;;;;;;;1.77;1.40;;;4.90;89.70;;;;;;4943847;29;20177;-89
2020/12/29 04:12:38;;;;;;;1.20;1.10;;;4.80;89.00;;;;;;4943794;29;20199;-89
2020/12/29 04:15:05;;;;;;;1.90;0.90;;;4.80;89.90;;;;;;4945756;28;20180;-88
2020/12/29 04:17:35;;;;;;;1.50;1.00;;;4.80;90.00;;;;;;4956295;28;20202;-88
2020/12/29 04:20:01;;;;;;;0.83;0.70;;;4.70;90.60;;;;;;4964497;28;20204;-88
2020/12/29 04:22:31;;;;;;;2.13;1.00;;;4.80;88.80;;;;;;4944256;28;20188;-89
2020/12/29 04:24:57;;;;;;;1.70;1.00;;;4.80;90.00;;;;;;4954630;29;20184;-88
2020/12/29 04:27:23;;;;;;;1.97;0.90;;;4.80;90.50;;;;;;4963412;28;20239;-88
2020/12/29 04:29:49;;;;;;;1.57;0.90;;;4.80;88.50;;;;;;4970562;28;20211;-88
2020/12/29 04:32:16;;;;;;;0.77;0.60;;;4.90;87.80;;;;;;4982268;28;20654;-88
2020/12/29 04:34:42;;;;;;;0.40;0.30;;;5.00;89.20;;;;;;4983033;28;20236;-88
2020/12/29 04:37:08;;;;;;;0.20;0.20;;;4.10;87.60;;;;;;4983441;28;20175;-89
2020/12/29 04:39:33;;;;;;;0.20;0.17;;;3.20;89.30;;;;;;4968431;28;20211;-90
2020/12/29 04:42:27;;;;;;;0.27;0.27;;;2.40;92.70;;;;;;4984915;28;20206;-91
2020/12/29 04:44:53;;;;;;;0.40;0.40;;;2.00;96.30;;;;;;4988709;28;20191;-91
2020/12/29 04:47:19;;;;;;;0.23;0.23;;;1.90;97.80;;;;;;4968923;28;20214;-92
2020/12/29 04:49:46;;;;;;;0.73;0.30;;;1.90;98.80;;;;;;4968768;28;20265;-91
2020/12/29 04:52:12;;;;;;;0.10;0.10;;;2.00;98.80;;;;;;4968645;28;20183;-91
2020/12/29 04:54:41;;;;;;;0.20;0.20;;;2.00;99.00;;;;;;4968952;28;20187;-91
2020/12/29 04:57:08;;;;;;;1.17;0.20;;;2.10;99.30;;;;;;4985997;28;20257;-91
2020/12/29 04:59:35;;;;;;;1.40;0.40;;;2.10;98.30;;;;;;4984653;28;20226;-90
2020/12/29 05:02:01;;;;;;;0.37;0.20;;;2.10;98.10;;;;;;4984208;28;20203;-91
2020/12/29 05:04:30;;;;;;;0.00;0.00;;;2.10;98.30;;;;;;4985440;28;20207;-89
2020/12/29 05:06:57;;;;;;;0.10;0.10;;;2.10;98.50;;;;;;4986275;28;20175;-90
2020/12/29 05:09:25;;;;;;;0.10;0.10;;;2.00;98.30;;;;;;4986995;28;20203;-90
2020/12/29 05:11:51;;;;;;;0.10;0.10;;;2.00;98.70;;;;;;4985265;28;20342;-91
2020/12/29 05:14:18;;;;;;;0.20;0.20;;;1.90;99.30;;;;;;4985289;28;20190;-89
2020/12/29 05:16:44;;;;;;;0.87;0.20;;;1.80;99.40;;;;;;4985508;28;20247;-91
2020/12/29 05:19:16;;;;;;;0.23;0.23;;;1.90;99.40;;;;;;4984849;28;20238;-91
2020/12/29 05:21:43;;;;;;;0.73;0.20;;;1.80;99.30;;;;;;4984397;28;20252;-91
2020/12/29 05:24:15;;;;;;;0.20;0.20;;;1.80;99.20;;;;;;4984560;28;20543;-91
2020/12/29 05:26:43;;;;;;;0.10;0.10;;;1.80;99.70;;;;;;4984109;28;20191;-91
2020/12/29 05:29:11;;;;;;;0.67;0.33;;;1.80;99.50;;;;;;5000413;23;20320;-91
2020/12/29 05:31:39;;;;;;;1.40;0.20;;;1.80;99.90;;;;;;5005058;28;20182;-91
2020/12/29 05:34:05;;;;;;;0.10;0.10;;;1.80;99.50;;;;;;5003917;28;20187;-91
2020/12/29 05:36:36;;;;;;;0.30;0.30;;;1.80;99.70;;;;;;4987525;28;20210;-91
2020/12/29 05:39:08;;;;;;;0.20;0.20;;;1.80;99.50;;;;;;4995664;28;20194;-91
2020/12/29 05:41:40;;;;;;;0.07;0.07;;;1.80;99.30;;;;;;5003505;28;20210;-91
2020/12/29 05:44:07;;;;;;;0.37;0.37;;;1.90;99.20;;;;;;4987024;28;20183;-91
2020/12/29 05:46:33;;;;;;;0.10;0.10;;;2.00;99.10;;;;;;5003427;28;20205;-91
2020/12/29 05:48:59;;;;;;;0.10;0.10;;;2.00;99.10;;;;;;5004499;28;20228;-90
2020/12/29 05:51:26;;;;;;;0.20;0.20;;;2.00;99.20;;;;;;5003475;28;20187;-91
2020/12/29 05:54:01;;;;;;;0.40;0.40;;;2.10;99.60;;;;;;5003266;28;20186;-91
2020/12/29 05:56:32;;;;;;;0.30;0.30;;;2.10;99.00;;;;;;5004302;28;20162;-90
2020/12/29 05:59:00;;;;;;;0.20;0.20;;;2.20;98.70;;;;;;5004216;28;20198;-91
2020/12/29 06:01:40;;;;;;;0.30;0.30;;;2.20;98.00;;;;;;5003085;28;20210;-91
2020/12/29 06:04:07;;;;;;;0.10;0.10;;;2.30;98.80;;;;;;5071585;28;20179;-91
2020/12/29 06:06:35;;;;;;;0.30;0.20;;;2.30;98.10;;;;;;5085094;28;20179;-90
2020/12/29 06:09:04;;;;;;;0.17;0.17;;;2.30;97.90;;;;;;5085953;28;20195;-91
2020/12/29 06:11:58;;;;;;;1.80;0.50;;;2.30;98.80;;;;;;5084502;28;20650;-90
2020/12/29 06:14:27;;;;;;;0.30;0.30;;;2.40;98.40;;;;;;5084685;28;20233;-91
2020/12/29 06:16:55;;;;;;;0.40;0.40;;;2.40;98.50;;;;;;5086323;28;20645;-91
2020/12/29 06:19:30;;;;;;;0.20;0.20;;;2.40;99.00;;;;;;5067863;28;20211;-90
2020/12/29 06:22:12;;;;;;;0.20;0.20;;;2.40;98.40;;;;;;5085563;28;20213;-90
2020/12/29 06:24:41;;;;;;;0.40;0.40;;;2.40;98.10;;;;;;5084667;28;20171;-91
2020/12/29 06:27:09;;;;;;;0.30;0.30;;;2.50;98.00;;;;;;5085256;28;20172;-91
2020/12/29 06:29:43;;;;;;;0.43;0.43;;;2.50;98.10;;;;;;5084111;28;20258;-91
2020/12/29 06:32:13;;;;;;;0.40;0.40;;;2.50;98.20;;;;;;5085099;28;20183;-90
2020/12/29 06:34:40;;;;;;;0.50;0.50;;;2.50;98.40;;;;;;5083769;28;20188;-90
2020/12/29 06:37:17;;;;;;;0.43;0.43;;;2.50;97.90;;;;;;5084376;28;20180;-90
2020/12/29 06:39:46;;;;;;;0.27;0.27;;;2.60;97.00;;;;;;5068781;28;20646;-90
2020/12/29 06:42:13;;;;;;;0.40;0.40;;;2.60;97.70;;;;;;5084346;28;20204;-91
2020/12/29 06:44:39;;;;;;;0.53;0.53;;;2.60;97.80;;;;;;5084086;28;20249;-91
2020/12/29 06:47:09;;;;;;;0.33;0.33;;;2.60;97.90;;;;;;5085032;28;20569;-90
2020/12/29 06:49:35;;;;;;;0.40;0.40;;;2.70;97.70;;;;;;5067492;28;20209;-90
2020/12/29 06:52:29;;;;;;;0.23;0.23;;;2.70;97.70;;;;;;5085028;28;20563;-91
2020/12/29 06:54:58;;;;;;;0.23;0.23;;;2.70;96.40;;;;;;5081345;28;20184;-90
2020/12/29 06:57:36;;;;;;;0.50;0.50;;;2.80;95.80;;;;;;5084333;28;20198;-90
2020/12/29 07:00:16;;;;;;;0.67;0.50;;;2.80;96.40;;;;;;5086901;28;20248;-91
2020/12/29 07:02:49;;;;;;;0.97;0.53;;;2.70;97.00;;;;;;5086870;28;20290;-91
2020/12/29 07:05:21;;;;;;;0.17;0.17;;;2.80;96.20;;;;;;5001192;28;20246;-91
2020/12/29 07:07:53;;;;;;;0.47;0.47;;;2.80;95.80;;;;;;5004981;28;20159;-90
2020/12/29 07:10:19;;;;;;;0.30;0.30;;;2.80;96.10;;;;;;5005351;28;20236;-90
2020/12/29 07:12:50;;;;;;;0.60;0.50;;;2.80;95.20;;;;;;5007492;28;20641;-90
2020/12/29 07:15:25;;;;;;;0.30;0.30;;;2.80;95.80;;;;;;5004978;28;20163;-90
2020/12/29 07:18:09;;;;;;;0.40;0.40;;;2.80;95.20;;;;;;5006658;28;20651;-91
2020/12/29 07:20:35;;;;;;;0.30;0.30;;;2.90;94.70;;;;;;5005934;28;20202;-91
2020/12/29 07:23:06;;;;;;;0.20;0.20;;;2.90;95.00;;;;;;4985823;28;20187;-90
2020/12/29 07:25:33;;;;;;;1.10;0.33;;;2.90;95.00;;;;;;5038055;28;20179;-90
2020/12/29 07:28:05;;;;;;;0.50;0.50;;;3.00;94.40;;;;;;5086237;28;20199;-90
2020/12/29 07:30:33;;;;;;;0.40;0.40;;;2.90;94.70;;;;;;5068663;28;20206;-91
2020/12/29 07:33:02;;;;;;;0.50;0.50;;;3.00;93.60;;;;;;5085725;28;20187;-88
2020/12/29 07:35:32;;;;;;;0.30;0.30;;;3.00;94.00;;;;;;5069368;28;20188;-90
2020/12/29 07:38:04;;;;;;;0.33;0.33;;;3.10;93.90;;;;;;5020653;28;20198;-89
2020/12/29 07:40:30;;;;;;;0.30;0.30;;;2.90;95.20;;;;;;5003807;28;20194;-89
2020/12/29 07:42:55;;;;;;;0.20;0.20;;;3.00;94.10;;;;;;5003383;28;20179;-89
2020/12/29 07:45:22;;;;;;;0.33;0.33;;;3.00;93.40;;;;;;5041796;28;20191;-88
2020/12/29 07:47:48;;;;;;;0.20;0.20;;;3.00;94.30;;;;;;5086312;28;20177;-89
2020/12/29 07:50:13;;;;;;;0.60;0.60;;;3.00;94.00;;;;;;5085431;28;20183;-89
2020/12/29 07:52:39;;;;;;;0.53;0.53;;;3.10;94.30;;;;;;5085441;28;20594;-89
2020/12/29 07:55:13;;;;;;;0.30;0.30;;;3.00;94.00;;;;;;5006963;28;20200;-89
2020/12/29 07:57:40;;;;;;;0.47;0.47;;;3.10;93.50;;;;;;5004332;28;20173;-89
2020/12/29 08:00:11;;;;;;;0.43;0.43;;;3.20;94.00;;;;;;5003783;28;20174;-88
2020/12/29 08:02:37;;;;;;;0.40;0.40;;;3.20;92.60;;;;;;5004865;28;20182;-89
2020/12/29 08:05:04;;;;;;;0.20;0.20;;;3.20;93.70;;;;;;5004842;28;20200;-89
2020/12/29 08:07:30;;;;;;;0.40;0.40;;;3.20;94.00;;;;;;5019683;28;20174;-89
2020/12/29 08:09:55;;;;;;;0.57;0.43;;;3.20;93.40;;;;;;4993133;28;20248;-89
2020/12/29 08:12:21;;;;;;;0.60;0.60;;;3.10;94.00;;;;;;4984032;28;20661;-89
2020/12/29 08:14:47;;;;;;;0.97;0.97;;;3.20;93.60;;;;;;4985486;28;20190;-89
2020/12/29 08:17:13;;;;;;;0.50;0.50;;;3.30;93.10;;;;;;4984939;28;20531;-90
2020/12/29 08:19:38;;;;;;;0.40;0.30;;;3.30;93.50;;;;;;4993201;28;20209;-89
2020/12/29 08:22:06;;;;;;;0.47;0.47;;;3.20;92.60;;;;;;5015735;28;20214;-90
2020/12/29 08:24:32;;;;;;;0.43;0.43;;;3.20;92.30;;;;;;4988058;28;20233;-89
2020/12/29 08:26:58;;;;;;;0.63;0.63;;;3.30;94.10;;;;;;4984958;28;20186;-90
2020/12/29 08:29:24;;;;;;;0.60;0.60;;;3.30;93.90;;;;;;4983579;28;20272;-90
2020/12/29 08:32:10;;;;;;;0.60;0.60;;;3.30;94.00;;;;;;4985922;28;20545;-90
2020/12/29 08:34:39;;;;;;;0.67;0.67;;;3.30;94.30;;;;;;4983339;28;20175;-90
2020/12/29 08:37:07;;;;;;;0.67;0.67;;;3.30;93.60;;;;;;4983173;28;20187;-89
2020/12/29 08:40:12;;;;;;;0.40;0.40;;;3.30;92.70;;;;;;4984948;28;20199;-90
2020/12/29 08:42:43;;;;;;;0.53;0.53;;;3.30;93.80;;;;;;4985548;28;20160;-90
2020/12/29 08:45:10;;;;;;;0.40;0.40;;;3.30;94.10;;;;;;4985152;28;20526;-90
2020/12/29 08:47:35;;;;;;;0.67;0.57;;;3.40;93.80;;;;;;4991224;28;20171;-90
2020/12/29 08:50:40;;;;;;;2.23;0.60;;;3.40;94.30;;;;;;4985637;28;20545;-89
2020/12/29 08:53:09;;;;;;;0.57;0.57;;;3.50;93.90;;;;;;5009075;28;20185;-89
2020/12/29 08:55:36;;;;;;;0.50;0.50;;;3.60;92.30;;;;;;5009583;28;20212;-89
2020/12/29 08:58:04;;;;;;;0.70;0.70;;;3.60;92.50;;;;;;5006031;28;20297;-89
2020/12/29 09:00:31;;;;;;;0.87;0.77;;;3.60;92.30;;;;;;5003835;28;20179;-89
2020/12/29 09:02:57;;;;;;;0.50;0.50;;;3.50;92.80;;;;;;5001872;28;20197;-91
2020/12/29 09:05:28;;;;;;;0.47;0.47;;;3.50;93.10;;;;;;5004949;28;20210;-89
2020/12/29 09:07:55;;;;;;;0.50;0.50;;;3.50;90.20;;;;;;5002373;28;20186;-89
2020/12/29 09:10:21;;;;;;;0.70;0.70;;;3.50;91.30;;;;;;4996319;28;20205;-89
2020/12/29 09:12:48;;;;;;;0.50;0.50;;;3.60;92.20;;;;;;4983028;28;20183;-90
2020/12/29 09:15:24;;;;;;;0.90;0.90;;;3.60;92.60;;;;;;4982060;28;20324;-90
2020/12/29 09:17:57;;;;;;;0.80;0.80;;;3.60;92.50;;;;;;4982126;28;20159;-90
2020/12/29 09:20:29;;;;;;;0.80;0.80;;;3.60;92.30;;;;;;4989606;28;20641;-90
2020/12/29 09:23:11;;;;;;;0.80;0.80;;;3.60;91.80;;;;;;4993036;28;20186;-89
2020/12/29 09:25:42;;;;;;;0.80;0.80;;;3.60;91.90;;;;;;4995662;28;20173;-89
2020/12/29 09:28:10;;;;;;;1.00;1.00;;;3.60;92.00;;;;;;4997798;28;20213;-89
2020/12/29 09:30:36;;;;;;;0.80;0.80;;;3.60;92.60;;;;;;5004371;28;20205;-89
2020/12/29 09:33:02;;;;;;;1.33;0.90;;;3.60;91.60;;;;;;5001489;28;20197;-90
2020/12/29 09:35:28;;;;;;;0.77;0.77;;;3.60;91.90;;;;;;5002289;28;20285;-89
2020/12/29 09:37:55;;;;;;;0.63;0.63;;;3.60;92.00;;;;;;4996121;28;20195;-90
2020/12/29 09:40:21;;;;;;;0.60;0.60;;;3.60;91.20;;;;;;4995292;28;20218;-90
2020/12/29 09:42:47;;;;;;;0.90;0.90;;;3.70;90.50;;;;;;4994910;28;20183;-88
2020/12/29 09:45:17;;;;;;;0.70;0.70;;;3.70;90.20;;;;;;4984611;28;20220;-88
2020/12/29 09:47:42;;;;;;;0.70;0.70;;;3.70;90.90;;;;;;4986134;28;20210;-88
2020/12/29 09:50:08;;;;;;;1.37;1.27;;;3.70;90.20;;;;;;4999386;28;20681;-89
2020/12/29 09:52:34;;;;;;;0.97;0.97;;;3.80;90.40;;;;;;4992615;28;20207;-88
2020/12/29 09:54:59;;;;;;;0.90;0.90;;;3.70;89.40;;;;;;4999249;28;20645;-89
2020/12/29 09:57:25;;;;;;;1.60;0.80;;;3.70;89.50;;;;;;5001396;28;20194;-89
2020/12/29 09:59:51;;;;;;;1.10;1.10;;;3.70;90.10;;;;;;4999074;28;20298;-88
2020/12/29 10:02:17;;;;;;;1.40;1.10;;;3.80;89.00;;;;;;5001835;28;20297;-89
2020/12/29 10:04:42;;;;;;;1.40;1.30;;;3.80;90.10;;;;;;5038972;28;20263;-90
2020/12/29 10:07:08;;;;;;;1.40;1.30;;;3.80;92.40;;;;;;5088334;28;20499;-89
2020/12/29 10:09:34;;;;;;;1.20;1.10;;;3.80;91.20;;;;;;5045263;28;20232;-89
2020/12/29 10:11:59;;;;;;;1.17;1.13;;;3.90;90.90;;;;;;5005147;28;20557;-88
2020/12/29 10:14:26;;;;;;;3.47;1.47;;;3.90;90.00;;;;;;4992009;28;20521;-88
2020/12/29 10:16:52;;;;;;;1.47;1.37;;;3.80;89.70;;;;;;5000403;28;20252;-88
2020/12/29 10:19:17;;;;;;;1.50;1.20;;;3.90;90.60;;;;;;5001101;28;20206;-89
2020/12/29 10:21:49;;;;;;;1.53;1.37;;;3.90;91.00;;;;;;4985190;28;20213;-89
2020/12/29 10:24:15;;;;;;;2.47;1.70;;;3.90;90.60;;;;;;5001496;28;20186;-89
2020/12/29 10:26:40;;;;;;;2.67;1.40;;;3.80;91.20;;;;;;5001703;28;20202;-89
2020/12/29 10:29:06;;;;;;;1.40;1.20;;;4.00;90.10;;;;;;5000984;28;20214;-89
2020/12/29 10:31:33;;;;;;;1.53;1.43;;;4.10;89.80;;;;;;5002245;28;20189;-89
2020/12/29 10:34:02;;;;;;;1.33;1.23;;;4.10;90.10;;;;;;5001355;28;20205;-89
2020/12/29 10:36:33;;;;;;;1.30;1.20;;;4.10;89.30;;;;;;4985396;28;20653;-89
2020/12/29 10:38:59;;;;;;;1.60;1.33;;;4.10;90.00;;;;;;5003338;28;20232;-89
2020/12/29 10:41:31;;;;;;;1.30;1.20;;;4.10;90.30;;;;;;5001365;28;20218;-89
2020/12/29 10:43:58;;;;;;;1.30;1.20;;;4.10;89.20;;;;;;5003692;28;20190;-88
2020/12/29 10:46:24;;;;;;;2.70;1.53;;;4.20;89.70;;;;;;5003053;28;20178;-88
2020/12/29 10:48:50;;;;;;;1.27;1.00;;;4.10;90.30;;;;;;5002135;28;20244;-89
2020/12/29 10:51:23;;;;;;;1.80;1.37;;;4.30;88.80;;;;;;4992742;28;20233;-88
2020/12/29 10:53:51;;;;;;;1.10;1.10;;;4.30;89.30;;;;;;4981831;28;20297;-89
2020/12/29 10:56:17;;;;;;;1.33;1.13;;;4.40;88.10;;;;;;4983452;28;20242;-88
2020/12/29 10:58:43;;;;;;;2.10;1.20;;;4.40;88.60;;;;;;4982152;28;20205;-89
2020/12/29 11:01:13;;;;;;;1.27;1.27;;;4.40;85.70;;;;;;4982100;28;20211;-89
2020/12/29 11:03:39;;;;;;;1.60;1.30;;;4.50;87.20;;;;;;4983436;28;20198;-88
2020/12/29 11:06:15;;;;;;;1.47;1.33;;;4.40;86.80;;;;;;4983855;28;20179;-89
2020/12/29 11:08:41;;;;;;;1.83;1.63;;;4.40;85.20;;;;;;4982369;28;20191;-88
2020/12/29 11:11:07;;;;;;;2.43;1.67;;;4.50;84.50;;;;;;4984199;28;20190;-88
2020/12/29 11:13:33;;;;;;;2.00;1.40;;;4.50;86.00;;;;;;4982435;28;20207;-89
2020/12/29 11:15:59;;;;;;;1.40;1.30;;;4.60;83.90;;;;;;4982762;28;20233;-89
2020/12/29 11:18:24;;;;;;;2.93;1.50;;;4.50;82.70;;;;;;4983391;28;20686;-89
2020/12/29 11:20:51;;;;;;;4.43;1.73;;;4.60;82.00;;;;;;4983518;28;20265;-90
2020/12/29 11:23:17;;;;;;;1.40;1.30;;;4.60;82.60;;;;;;4966382;28;20187;-90
2020/12/29 11:25:42;;;;;;;2.23;1.50;;;4.60;82.20;;;;;;4983952;28;20248;-89
2020/12/29 11:28:08;;;;;;;1.60;1.50;;;4.60;81.50;;;;;;4985408;28;20217;-90
2020/12/29 11:30:34;;;;;;;3.60;1.50;;;4.60;82.50;;;;;;4984611;28;20195;-89
2020/12/29 11:33:00;;;;;;;1.50;1.40;;;4.50;81.90;;;;;;4984602;28;20181;-89
2020/12/29 11:35:25;;;;;;;2.60;1.40;;;4.50;82.10;;;;;;4983823;28;20229;-89
2020/12/29 11:37:51;;;;;;;2.23;1.20;;;4.50;83.20;;;;;;4995775;28;20212;-89
2020/12/29 11:40:17;;;;;;;2.73;1.50;;;4.60;80.40;;;;;;5001928;28;20568;-89
2020/12/29 11:42:43;;;;;;;3.00;1.60;;;4.60;80.60;;;;;;5002938;28;20766;-90
2020/12/29 11:45:09;;;;;;;1.77;1.40;;;4.60;81.70;;;;;;5003948;28;20245;-89
2020/12/29 11:47:34;;;;;;;3.93;1.43;;;4.70;81.10;;;;;;4988344;28;20236;-90
2020/12/29 11:50:00;;;;;;;3.30;1.83;;;4.80;81.00;;;;;;4988269;28;20202;-89
2020/12/29 11:52:26;;;;;;;2.07;1.70;;;4.90;81.60;;;;;;5005562;28;20222;-89
2020/12/29 11:54:52;;;;;;;3.20;1.37;;;5.00;81.10;;;;;;4988869;28;20191;-89
2020/12/29 11:57:18;;;;;;;1.57;1.30;;;5.10;79.30;;;;;;4985262;28;20190;-89
2020/12/29 11:59:44;;;;;;;2.33;1.47;;;5.10;80.00;;;;;;4985848;28;20646;-89
2020/12/29 12:02:10;;;;;;;1.63;1.40;;;5.10;80.30;;;;;;4987318;28;20217;-90
2020/12/29 12:04:36;;;;;;;1.90;1.30;;;5.10;82.00;;;;;;4987262;28;20203;-90
2020/12/29 12:07:04;;;;;;;2.10;1.57;;;5.00;82.50;;;;;;4985531;28;20190;-90
2020/12/29 12:09:33;;;;;;;1.50;1.40;;;5.10;80.90;;;;;;4987683;28;20286;-90
2020/12/29 12:11:59;;;;;;;2.00;1.37;;;5.30;80.10;;;;;;4986668;28;20199;-90
2020/12/29 12:14:25;;;;;;;2.00;1.50;;;5.20;81.10;;;;;;4986667;28;20191;-89
2020/12/29 12:16:50;;;;;;;4.27;1.90;;;5.30;79.50;;;;;;4985524;28;20553;-90
2020/12/29 12:19:16;;;;;;;2.53;1.40;;;5.30;81.40;;;;;;4985550;28;20230;-90
2020/12/29 12:21:42;;;;;;;1.40;1.30;;;5.30;80.50;;;;;;4986006;28;20214;-90
2020/12/29 12:24:07;;;;;;;1.40;1.30;;;5.40;80.00;;;;;;4969255;28;20258;-90
2020/12/29 12:26:33;;;;;;;2.67;1.40;;;5.50;79.80;;;;;;4991246;28;20183;-89
2020/12/29 12:28:58;;;;;;;2.63;1.57;;;5.70;78.60;;;;;;5005972;28;20238;-90
2020/12/29 12:31:24;;;;;;;4.63;2.60;;;5.80;78.50;;;;;;5004381;28;20206;-90
2020/12/29 12:33:51;;;;;;;2.27;1.83;;;6.10;78.30;;;;;;5005886;28;20298;-90
2020/12/29 12:36:17;;;;;;;2.90;1.77;;;6.20;77.30;;;;;;5005612;28;20680;-90
2020/12/29 12:38:52;;;;;;;1.97;1.50;;;6.20;77.40;;;;;;5004211;28;20206;-90
2020/12/29 12:41:18;;;;;;;1.67;1.40;;;6.10;78.10;;;;;;4987378;28;20247;-91
2020/12/29 12:43:45;;;;;;;2.03;1.60;;;6.10;77.90;;;;;;5004316;28;20178;-90
2020/12/29 12:46:11;;;;;;;2.20;1.60;;;6.00;78.80;;;;;;5003843;28;20183;-90
2020/12/29 12:48:39;;;;;;;1.80;1.70;;;5.80;80.10;;;;;;5002960;28;20225;-90
2020/12/29 12:51:05;;;;;;;2.43;1.70;;;5.60;80.40;;;;;;5006283;28;20183;-90
2020/12/29 12:53:32;;;;;;;2.53;1.50;;;5.50;81.70;;;;;;4988266;28;20214;-90
2020/12/29 12:55:57;;;;;;;1.60;1.50;;;5.50;81.40;;;;;;4985023;28;20215;-90
2020/12/29 12:58:23;;;;;;;1.43;1.20;;;5.70;80.20;;;;;;4991650;28;20225;-90
2020/12/29 13:00:49;;;;;;;1.50;1.40;;;5.70;79.80;;;;;;5004156;28;20229;-90